sensor_id;sensor_type;location;lat;lon;timestamp;P1;durP1;ratioP1;P2;durP2;ratioP2
781;SDS011;374;52.568;13.402;2022-11-20T00:01:12;16.07;;;11.37;;
781;SDS011;374;52.568;13.402;2022-11-20T00:03:40;18.17;;;12.43;;
781;SDS011;374;52.568;13.402;2022-11-20T00:06:08;15.90;;;12.03;;
781;SDS011;374;52.568;13.402;2022-11-20T00:08:35;13.37;;;10.77;;
781;SDS011;374;52.568;13.402;2022-11-20T00:11:02;18.43;;;12.33;;
781;SDS011;374;52.568;13.402;2022-11-20T00:13:32;14.20;;;10.93;;
781;SDS011;374;52.568;13.402;2022-11-20T00:15:58;18.30;;;12.37;;
781;SDS011;374;52.568;13.402;2022-11-20T00:18:25;15.83;;;11.17;;
781;SDS011;374;52.568;13.402;2022-11-20T00:20:51;16.37;;;12.93;;
781;SDS011;374;52.568;13.402;2022-11-20T00:23:17;16.07;;;11.83;;
781;SDS011;374;52.568;13.402;2022-11-20T00:25:42;17.03;;;12.50;;
781;SDS011;374;52.568;13.402;2022-11-20T00:28:08;21.80;;;12.70;;
781;SDS011;374;52.568;13.402;2022-11-20T00:30:33;17.00;;;11.07;;
781;SDS011;374;52.568;13.402;2022-11-20T00:32:59;13.10;;;11.10;;
781;SDS011;374;52.568;13.402;2022-11-20T00:35:24;16.10;;;12.13;;
781;SDS011;374;52.568;13.402;2022-11-20T00:37:50;16.87;;;11.60;;
781;SDS011;374;52.568;13.402;2022-11-20T00:40:15;18.97;;;12.70;;
781;SDS011;374;52.568;13.402;2022-11-20T00:42:41;17.17;;;12.63;;
781;SDS011;374;52.568;13.402;2022-11-20T00:45:06;16.90;;;11.77;;
781;SDS011;374;52.568;13.402;2022-11-20T00:47:32;17.10;;;11.50;;
781;SDS011;374;52.568;13.402;2022-11-20T00:49:58;17.80;;;12.13;;
781;SDS011;374;52.568;13.402;2022-11-20T00:52:23;17.00;;;11.80;;
781;SDS011;374;52.568;13.402;2022-11-20T00:54:48;16.30;;;12.83;;
781;SDS011;374;52.568;13.402;2022-11-20T00:57:14;25.20;;;11.57;;
781;SDS011;374;52.568;13.402;2022-11-20T00:59:39;18.63;;;12.17;;
781;SDS011;374;52.568;13.402;2022-11-20T01:02:05;14.30;;;11.40;;
781;SDS011;374;52.568;13.402;2022-11-20T01:04:30;16.30;;;12.60;;
781;SDS011;374;52.568;13.402;2022-11-20T01:06:56;17.67;;;12.50;;
781;SDS011;374;52.568;13.402;2022-11-20T01:09:21;11.47;;;9.57;;
781;SDS011;374;52.568;13.402;2022-11-20T01:11:47;18.67;;;12.60;;
781;SDS011;374;52.568;13.402;2022-11-20T01:14:13;16.80;;;11.07;;
781;SDS011;374;52.568;13.402;2022-11-20T01:16:42;18.43;;;11.13;;
781;SDS011;374;52.568;13.402;2022-11-20T01:19:10;17.43;;;12.30;;
781;SDS011;374;52.568;13.402;2022-11-20T01:21:38;18.50;;;12.73;;
781;SDS011;374;52.568;13.402;2022-11-20T01:24:07;17.37;;;12.60;;
781;SDS011;374;52.568;13.402;2022-11-20T01:26:36;18.60;;;11.67;;
781;SDS011;374;52.568;13.402;2022-11-20T01:29:03;14.97;;;11.83;;
781;SDS011;374;52.568;13.402;2022-11-20T01:31:30;20.07;;;11.60;;
781;SDS011;374;52.568;13.402;2022-11-20T01:34:03;20.27;;;13.50;;
781;SDS011;374;52.568;13.402;2022-11-20T01:36:31;15.37;;;11.63;;
781;SDS011;374;52.568;13.402;2022-11-20T01:38:59;16.90;;;11.50;;
781;SDS011;374;52.568;13.402;2022-11-20T01:41:28;12.60;;;10.70;;
781;SDS011;374;52.568;13.402;2022-11-20T01:44:15;16.23;;;11.37;;
781;SDS011;374;52.568;13.402;2022-11-20T01:46:59;15.93;;;12.10;;
781;SDS011;374;52.568;13.402;2022-11-20T01:49:33;16.00;;;11.47;;
781;SDS011;374;52.568;13.402;2022-11-20T01:52:17;18.93;;;11.60;;
781;SDS011;374;52.568;13.402;2022-11-20T01:54:52;17.10;;;11.47;;
781;SDS011;374;52.568;13.402;2022-11-20T01:57:24;19.00;;;11.80;;
781;SDS011;374;52.568;13.402;2022-11-20T01:59:55;14.23;;;10.40;;
781;SDS011;374;52.568;13.402;2022-11-20T02:02:25;13.77;;;11.30;;
781;SDS011;374;52.568;13.402;2022-11-20T02:04:51;17.30;;;11.00;;
781;SDS011;374;52.568;13.402;2022-11-20T02:07:22;16.30;;;11.17;;
781;SDS011;374;52.568;13.402;2022-11-20T02:09:48;13.17;;;11.20;;
781;SDS011;374;52.568;13.402;2022-11-20T02:12:14;13.37;;;11.23;;
781;SDS011;374;52.568;13.402;2022-11-20T02:14:59;16.30;;;10.63;;
781;SDS011;374;52.568;13.402;2022-11-20T02:17:28;15.97;;;11.93;;
781;SDS011;374;52.568;13.402;2022-11-20T02:19:54;17.60;;;12.03;;
781;SDS011;374;52.568;13.402;2022-11-20T02:22:26;19.13;;;12.23;;
781;SDS011;374;52.568;13.402;2022-11-20T02:24:55;17.97;;;11.37;;
781;SDS011;374;52.568;13.402;2022-11-20T02:27:23;20.57;;;12.77;;
781;SDS011;374;52.568;13.402;2022-11-20T02:29:56;18.23;;;13.63;;
781;SDS011;374;52.568;13.402;2022-11-20T02:32:30;17.03;;;11.27;;
781;SDS011;374;52.568;13.402;2022-11-20T02:34:57;18.50;;;12.70;;
781;SDS011;374;52.568;13.402;2022-11-20T02:37:25;16.17;;;12.20;;
781;SDS011;374;52.568;13.402;2022-11-20T02:39:57;21.73;;;13.40;;
781;SDS011;374;52.568;13.402;2022-11-20T02:42:22;17.53;;;13.47;;
781;SDS011;374;52.568;13.402;2022-11-20T02:44:48;20.10;;;13.50;;
781;SDS011;374;52.568;13.402;2022-11-20T02:47:13;18.20;;;12.37;;
781;SDS011;374;52.568;13.402;2022-11-20T02:49:41;19.27;;;11.90;;
781;SDS011;374;52.568;13.402;2022-11-20T02:52:06;17.63;;;12.10;;
781;SDS011;374;52.568;13.402;2022-11-20T02:54:32;17.40;;;12.70;;
781;SDS011;374;52.568;13.402;2022-11-20T02:56:57;18.77;;;12.43;;
781;SDS011;374;52.568;13.402;2022-11-20T02:59:23;17.73;;;12.40;;
781;SDS011;374;52.568;13.402;2022-11-20T03:01:49;19.57;;;13.57;;
781;SDS011;374;52.568;13.402;2022-11-20T03:04:14;26.07;;;13.43;;
781;SDS011;374;52.568;13.402;2022-11-20T03:06:40;23.67;;;13.53;;
781;SDS011;374;52.568;13.402;2022-11-20T03:09:05;18.80;;;13.37;;
781;SDS011;374;52.568;13.402;2022-11-20T03:11:31;19.27;;;12.87;;
781;SDS011;374;52.568;13.402;2022-11-20T03:13:56;16.83;;;13.87;;
781;SDS011;374;52.568;13.402;2022-11-20T03:16:22;22.50;;;14.23;;
781;SDS011;374;52.568;13.402;2022-11-20T03:18:48;17.50;;;11.67;;
781;SDS011;374;52.568;13.402;2022-11-20T03:21:14;18.53;;;12.33;;
781;SDS011;374;52.568;13.402;2022-11-20T03:23:40;17.93;;;12.57;;
781;SDS011;374;52.568;13.402;2022-11-20T03:26:12;15.63;;;12.63;;
781;SDS011;374;52.568;13.402;2022-11-20T03:28:39;20.37;;;13.90;;
781;SDS011;374;52.568;13.402;2022-11-20T03:31:15;22.03;;;13.73;;
781;SDS011;374;52.568;13.402;2022-11-20T03:33:55;25.20;;;13.70;;
781;SDS011;374;52.568;13.402;2022-11-20T03:36:22;20.87;;;13.10;;
781;SDS011;374;52.568;13.402;2022-11-20T03:38:48;15.63;;;12.50;;
781;SDS011;374;52.568;13.402;2022-11-20T03:41:18;20.63;;;14.37;;
781;SDS011;374;52.568;13.402;2022-11-20T03:43:49;17.60;;;12.40;;
781;SDS011;374;52.568;13.402;2022-11-20T03:46:22;21.43;;;14.20;;
781;SDS011;374;52.568;13.402;2022-11-20T03:48:47;21.60;;;14.57;;
781;SDS011;374;52.568;13.402;2022-11-20T03:51:14;22.30;;;15.30;;
781;SDS011;374;52.568;13.402;2022-11-20T03:53:42;20.87;;;14.57;;
781;SDS011;374;52.568;13.402;2022-11-20T03:56:08;18.90;;;13.00;;
781;SDS011;374;52.568;13.402;2022-11-20T03:58:36;21.47;;;15.20;;
781;SDS011;374;52.568;13.402;2022-11-20T04:01:10;20.90;;;14.67;;
781;SDS011;374;52.568;13.402;2022-11-20T04:03:38;21.10;;;13.63;;
781;SDS011;374;52.568;13.402;2022-11-20T04:06:08;21.10;;;14.77;;
781;SDS011;374;52.568;13.402;2022-11-20T04:08:35;24.93;;;15.00;;
781;SDS011;374;52.568;13.402;2022-11-20T04:11:14;21.90;;;15.37;;
781;SDS011;374;52.568;13.402;2022-11-20T04:13:42;18.20;;;14.20;;
781;SDS011;374;52.568;13.402;2022-11-20T04:16:11;22.93;;;14.97;;
781;SDS011;374;52.568;13.402;2022-11-20T04:18:37;22.33;;;14.17;;
781;SDS011;374;52.568;13.402;2022-11-20T04:21:03;24.27;;;16.37;;
781;SDS011;374;52.568;13.402;2022-11-20T04:23:29;22.93;;;14.83;;
781;SDS011;374;52.568;13.402;2022-11-20T04:26:00;20.40;;;13.50;;
781;SDS011;374;52.568;13.402;2022-11-20T04:28:29;21.53;;;14.80;;
781;SDS011;374;52.568;13.402;2022-11-20T04:31:01;20.70;;;14.27;;
781;SDS011;374;52.568;13.402;2022-11-20T04:33:34;19.07;;;14.10;;
781;SDS011;374;52.568;13.402;2022-11-20T04:36:05;19.73;;;14.20;;
781;SDS011;374;52.568;13.402;2022-11-20T04:38:35;20.30;;;13.77;;
781;SDS011;374;52.568;13.402;2022-11-20T04:41:01;18.67;;;14.60;;
781;SDS011;374;52.568;13.402;2022-11-20T04:43:29;20.50;;;15.00;;
781;SDS011;374;52.568;13.402;2022-11-20T04:45:55;23.07;;;15.07;;
781;SDS011;374;52.568;13.402;2022-11-20T04:48:23;21.00;;;15.40;;
781;SDS011;374;52.568;13.402;2022-11-20T04:50:51;18.23;;;13.80;;
781;SDS011;374;52.568;13.402;2022-11-20T04:53:17;20.30;;;14.10;;
781;SDS011;374;52.568;13.402;2022-11-20T04:55:44;21.23;;;14.83;;
781;SDS011;374;52.568;13.402;2022-11-20T04:58:09;25.83;;;14.00;;
781;SDS011;374;52.568;13.402;2022-11-20T05:00:35;17.63;;;13.83;;
781;SDS011;374;52.568;13.402;2022-11-20T05:03:01;22.00;;;14.23;;
781;SDS011;374;52.568;13.402;2022-11-20T05:05:26;21.50;;;14.10;;
781;SDS011;374;52.568;13.402;2022-11-20T05:07:52;18.53;;;13.70;;
781;SDS011;374;52.568;13.402;2022-11-20T05:10:17;18.30;;;13.87;;
781;SDS011;374;52.568;13.402;2022-11-20T05:12:43;23.27;;;15.37;;
781;SDS011;374;52.568;13.402;2022-11-20T05:15:08;21.57;;;13.63;;
781;SDS011;374;52.568;13.402;2022-11-20T05:17:34;19.63;;;14.80;;
781;SDS011;374;52.568;13.402;2022-11-20T05:20:03;18.20;;;12.80;;
781;SDS011;374;52.568;13.402;2022-11-20T05:22:28;21.43;;;14.83;;
781;SDS011;374;52.568;13.402;2022-11-20T05:24:54;20.57;;;14.37;;
781;SDS011;374;52.568;13.402;2022-11-20T05:27:19;21.43;;;15.07;;
781;SDS011;374;52.568;13.402;2022-11-20T05:29:45;18.83;;;14.47;;
781;SDS011;374;52.568;13.402;2022-11-20T05:32:10;19.80;;;13.60;;
781;SDS011;374;52.568;13.402;2022-11-20T05:34:36;21.53;;;13.53;;
781;SDS011;374;52.568;13.402;2022-11-20T05:37:02;19.27;;;14.30;;
781;SDS011;374;52.568;13.402;2022-11-20T05:39:27;20.43;;;13.80;;
781;SDS011;374;52.568;13.402;2022-11-20T05:41:53;20.97;;;14.00;;
781;SDS011;374;52.568;13.402;2022-11-20T05:44:38;16.43;;;12.67;;
781;SDS011;374;52.568;13.402;2022-11-20T05:47:04;18.20;;;13.80;;
781;SDS011;374;52.568;13.402;2022-11-20T05:49:30;22.87;;;14.17;;
781;SDS011;374;52.568;13.402;2022-11-20T05:51:56;23.80;;;14.10;;
781;SDS011;374;52.568;13.402;2022-11-20T05:54:21;20.30;;;14.70;;
781;SDS011;374;52.568;13.402;2022-11-20T05:56:47;17.60;;;12.90;;
781;SDS011;374;52.568;13.402;2022-11-20T05:59:12;18.03;;;13.00;;
781;SDS011;374;52.568;13.402;2022-11-20T06:01:38;22.43;;;15.73;;
781;SDS011;374;52.568;13.402;2022-11-20T06:04:03;20.90;;;15.17;;
781;SDS011;374;52.568;13.402;2022-11-20T06:06:29;16.60;;;12.93;;
781;SDS011;374;52.568;13.402;2022-11-20T06:08:54;22.80;;;13.60;;
781;SDS011;374;52.568;13.402;2022-11-20T06:11:20;18.93;;;13.60;;
781;SDS011;374;52.568;13.402;2022-11-20T06:13:46;19.70;;;12.70;;
781;SDS011;374;52.568;13.402;2022-11-20T06:16:13;18.13;;;12.80;;
781;SDS011;374;52.568;13.402;2022-11-20T06:18:40;21.00;;;14.43;;
781;SDS011;374;52.568;13.402;2022-11-20T06:21:07;22.07;;;13.80;;
781;SDS011;374;52.568;13.402;2022-11-20T06:23:37;21.00;;;13.43;;
781;SDS011;374;52.568;13.402;2022-11-20T06:26:07;22.10;;;13.47;;
781;SDS011;374;52.568;13.402;2022-11-20T06:28:33;18.73;;;12.40;;
781;SDS011;374;52.568;13.402;2022-11-20T06:30:59;20.83;;;12.87;;
781;SDS011;374;52.568;13.402;2022-11-20T06:33:25;22.20;;;13.47;;
781;SDS011;374;52.568;13.402;2022-11-20T06:35:51;19.90;;;12.30;;
781;SDS011;374;52.568;13.402;2022-11-20T06:38:24;19.60;;;13.73;;
781;SDS011;374;52.568;13.402;2022-11-20T06:40:50;23.50;;;13.83;;
781;SDS011;374;52.568;13.402;2022-11-20T06:43:16;21.70;;;13.57;;
781;SDS011;374;52.568;13.402;2022-11-20T06:45:41;17.50;;;13.00;;
781;SDS011;374;52.568;13.402;2022-11-20T06:48:07;22.97;;;14.67;;
781;SDS011;374;52.568;13.402;2022-11-20T06:50:34;22.30;;;15.33;;
781;SDS011;374;52.568;13.402;2022-11-20T06:53:01;22.93;;;14.53;;
781;SDS011;374;52.568;13.402;2022-11-20T06:55:28;22.80;;;14.27;;
781;SDS011;374;52.568;13.402;2022-11-20T06:57:53;25.17;;;15.97;;
781;SDS011;374;52.568;13.402;2022-11-20T07:00:19;18.17;;;13.47;;
781;SDS011;374;52.568;13.402;2022-11-20T07:02:44;22.33;;;14.90;;
781;SDS011;374;52.568;13.402;2022-11-20T07:05:10;22.07;;;14.53;;
781;SDS011;374;52.568;13.402;2022-11-20T07:07:35;19.47;;;14.67;;
781;SDS011;374;52.568;13.402;2022-11-20T07:10:04;20.10;;;14.93;;
781;SDS011;374;52.568;13.402;2022-11-20T07:12:30;19.53;;;12.80;;
781;SDS011;374;52.568;13.402;2022-11-20T07:14:55;21.60;;;14.63;;
781;SDS011;374;52.568;13.402;2022-11-20T07:17:21;22.37;;;15.27;;
781;SDS011;374;52.568;13.402;2022-11-20T07:19:48;25.13;;;14.07;;
781;SDS011;374;52.568;13.402;2022-11-20T07:22:14;18.80;;;13.90;;
781;SDS011;374;52.568;13.402;2022-11-20T07:24:40;22.40;;;15.07;;
781;SDS011;374;52.568;13.402;2022-11-20T07:27:06;20.57;;;14.00;;
781;SDS011;374;52.568;13.402;2022-11-20T07:29:31;22.07;;;15.80;;
781;SDS011;374;52.568;13.402;2022-11-20T07:31:57;19.57;;;13.77;;
781;SDS011;374;52.568;13.402;2022-11-20T07:34:22;18.47;;;13.23;;
781;SDS011;374;52.568;13.402;2022-11-20T07:36:48;21.73;;;15.40;;
781;SDS011;374;52.568;13.402;2022-11-20T07:39:13;26.10;;;15.50;;
781;SDS011;374;52.568;13.402;2022-11-20T07:41:39;26.50;;;16.80;;
781;SDS011;374;52.568;13.402;2022-11-20T07:44:04;23.63;;;16.00;;
781;SDS011;374;52.568;13.402;2022-11-20T07:46:32;21.83;;;15.43;;
781;SDS011;374;52.568;13.402;2022-11-20T07:48:58;24.53;;;16.10;;
781;SDS011;374;52.568;13.402;2022-11-20T07:51:23;24.23;;;15.37;;
781;SDS011;374;52.568;13.402;2022-11-20T07:53:51;24.17;;;15.50;;
781;SDS011;374;52.568;13.402;2022-11-20T07:56:17;24.47;;;16.10;;
781;SDS011;374;52.568;13.402;2022-11-20T07:58:43;27.17;;;16.33;;
781;SDS011;374;52.568;13.402;2022-11-20T08:01:08;23.23;;;15.40;;
781;SDS011;374;52.568;13.402;2022-11-20T08:03:35;21.37;;;15.57;;
781;SDS011;374;52.568;13.402;2022-11-20T08:06:02;25.93;;;16.23;;
781;SDS011;374;52.568;13.402;2022-11-20T08:08:28;20.80;;;14.97;;
781;SDS011;374;52.568;13.402;2022-11-20T08:10:56;23.50;;;14.33;;
781;SDS011;374;52.568;13.402;2022-11-20T08:13:42;23.27;;;14.00;;
781;SDS011;374;52.568;13.402;2022-11-20T08:16:26;22.17;;;15.20;;
781;SDS011;374;52.568;13.402;2022-11-20T08:18:54;20.70;;;13.77;;
781;SDS011;374;52.568;13.402;2022-11-20T08:21:20;19.53;;;14.10;;
781;SDS011;374;52.568;13.402;2022-11-20T08:23:45;26.73;;;16.80;;
781;SDS011;374;52.568;13.402;2022-11-20T08:26:11;21.37;;;14.90;;
781;SDS011;374;52.568;13.402;2022-11-20T08:28:36;24.40;;;15.37;;
781;SDS011;374;52.568;13.402;2022-11-20T08:31:02;23.60;;;14.83;;
781;SDS011;374;52.568;13.402;2022-11-20T08:33:28;22.87;;;15.40;;
781;SDS011;374;52.568;13.402;2022-11-20T08:35:58;26.37;;;17.40;;
781;SDS011;374;52.568;13.402;2022-11-20T08:38:29;21.67;;;15.30;;
781;SDS011;374;52.568;13.402;2022-11-20T08:40:56;22.10;;;15.30;;
781;SDS011;374;52.568;13.402;2022-11-20T08:43:41;24.73;;;15.00;;
781;SDS011;374;52.568;13.402;2022-11-20T08:46:07;24.03;;;17.33;;
781;SDS011;374;52.568;13.402;2022-11-20T08:48:32;21.53;;;15.20;;
781;SDS011;374;52.568;13.402;2022-11-20T08:50:58;22.77;;;16.73;;
781;SDS011;374;52.568;13.402;2022-11-20T08:53:24;22.33;;;17.57;;
781;SDS011;374;52.568;13.402;2022-11-20T08:55:50;23.47;;;17.33;;
781;SDS011;374;52.568;13.402;2022-11-20T08:58:15;29.73;;;17.67;;
781;SDS011;374;52.568;13.402;2022-11-20T09:00:41;28.20;;;17.13;;
781;SDS011;374;52.568;13.402;2022-11-20T09:03:06;21.80;;;16.93;;
781;SDS011;374;52.568;13.402;2022-11-20T09:05:32;27.60;;;18.30;;
781;SDS011;374;52.568;13.402;2022-11-20T09:07:57;23.93;;;15.63;;
781;SDS011;374;52.568;13.402;2022-11-20T09:10:24;26.87;;;17.87;;
781;SDS011;374;52.568;13.402;2022-11-20T09:12:50;30.47;;;18.30;;
781;SDS011;374;52.568;13.402;2022-11-20T09:15:16;26.93;;;17.43;;
781;SDS011;374;52.568;13.402;2022-11-20T09:17:42;24.80;;;18.10;;
781;SDS011;374;52.568;13.402;2022-11-20T09:20:18;23.67;;;17.50;;
781;SDS011;374;52.568;13.402;2022-11-20T09:22:46;23.87;;;18.13;;
781;SDS011;374;52.568;13.402;2022-11-20T09:25:12;27.83;;;17.80;;
781;SDS011;374;52.568;13.402;2022-11-20T09:27:37;28.70;;;17.40;;
781;SDS011;374;52.568;13.402;2022-11-20T09:30:03;29.83;;;18.23;;
781;SDS011;374;52.568;13.402;2022-11-20T09:32:29;26.80;;;18.43;;
781;SDS011;374;52.568;13.402;2022-11-20T09:34:55;28.00;;;18.47;;
781;SDS011;374;52.568;13.402;2022-11-20T09:37:20;28.07;;;21.33;;
781;SDS011;374;52.568;13.402;2022-11-20T09:39:46;31.07;;;19.77;;
781;SDS011;374;52.568;13.402;2022-11-20T09:45:27;30.87;;;19.80;;
781;SDS011;374;52.568;13.402;2022-11-20T09:48:24;30.00;;;19.23;;
781;SDS011;374;52.568;13.402;2022-11-20T09:54:05;27.07;;;19.10;;
781;SDS011;374;52.568;13.402;2022-11-20T09:56:40;30.10;;;21.03;;
781;SDS011;374;52.568;13.402;2022-11-20T09:59:13;30.60;;;19.27;;
781;SDS011;374;52.568;13.402;2022-11-20T10:01:47;25.03;;;18.13;;
781;SDS011;374;52.568;13.402;2022-11-20T10:04:15;24.80;;;17.40;;
781;SDS011;374;52.568;13.402;2022-11-20T10:07:03;21.53;;;15.30;;
781;SDS011;374;52.568;13.402;2022-11-20T10:09:37;22.50;;;15.90;;
781;SDS011;374;52.568;13.402;2022-11-20T10:12:23;22.23;;;15.47;;
781;SDS011;374;52.568;13.402;2022-11-20T10:17:33;21.67;;;16.80;;
781;SDS011;374;52.568;13.402;2022-11-20T10:20:26;23.60;;;17.90;;
781;SDS011;374;52.568;13.402;2022-11-20T10:25:59;21.57;;;16.17;;
781;SDS011;374;52.568;13.402;2022-11-20T10:31:27;27.13;;;16.80;;
781;SDS011;374;52.568;13.402;2022-11-20T10:34:17;20.10;;;15.43;;
781;SDS011;374;52.568;13.402;2022-11-20T10:39:57;25.97;;;16.17;;
781;SDS011;374;52.568;13.402;2022-11-20T10:42:37;23.47;;;16.17;;
781;SDS011;374;52.568;13.402;2022-11-20T10:48:24;27.30;;;17.20;;
781;SDS011;374;52.568;13.402;2022-11-20T10:50:57;24.17;;;17.20;;
781;SDS011;374;52.568;13.402;2022-11-20T10:56:31;24.53;;;16.77;;
781;SDS011;374;52.568;13.402;2022-11-20T10:59:05;25.33;;;18.13;;
781;SDS011;374;52.568;13.402;2022-11-20T11:01:52;30.63;;;17.30;;
781;SDS011;374;52.568;13.402;2022-11-20T11:06:49;21.10;;;15.63;;
781;SDS011;374;52.568;13.402;2022-11-20T11:09:17;23.43;;;16.60;;
781;SDS011;374;52.568;13.402;2022-11-20T11:11:49;21.30;;;15.20;;
781;SDS011;374;52.568;13.402;2022-11-20T11:14:15;24.70;;;16.80;;
781;SDS011;374;52.568;13.402;2022-11-20T11:16:48;22.70;;;15.27;;
781;SDS011;374;52.568;13.402;2022-11-20T11:19:16;17.87;;;13.73;;
781;SDS011;374;52.568;13.402;2022-11-20T11:21:55;22.20;;;13.83;;
781;SDS011;374;52.568;13.402;2022-11-20T11:24:27;17.13;;;13.93;;
781;SDS011;374;52.568;13.402;2022-11-20T11:27:04;25.97;;;15.53;;
781;SDS011;374;52.568;13.402;2022-11-20T11:29:37;20.33;;;13.53;;
781;SDS011;374;52.568;13.402;2022-11-20T11:32:04;16.17;;;12.50;;
781;SDS011;374;52.568;13.402;2022-11-20T11:34:31;16.60;;;12.80;;
781;SDS011;374;52.568;13.402;2022-11-20T11:36:57;20.37;;;13.33;;
781;SDS011;374;52.568;13.402;2022-11-20T11:39:24;17.47;;;12.17;;
781;SDS011;374;52.568;13.402;2022-11-20T11:41:52;14.93;;;11.40;;
781;SDS011;374;52.568;13.402;2022-11-20T11:44:26;21.63;;;14.40;;
781;SDS011;374;52.568;13.402;2022-11-20T11:48:00;16.17;;;11.93;;
781;SDS011;374;52.568;13.402;2022-11-20T11:52:50;14.70;;;10.80;;
781;SDS011;374;52.568;13.402;2022-11-20T11:55:25;13.27;;;11.47;;
781;SDS011;374;52.568;13.402;2022-11-20T11:58:24;15.77;;;12.20;;
781;SDS011;374;52.568;13.402;2022-11-20T12:04:04;21.23;;;13.73;;
781;SDS011;374;52.568;13.402;2022-11-20T12:06:51;18.40;;;12.90;;
781;SDS011;374;52.568;13.402;2022-11-20T12:09:26;16.50;;;12.70;;
781;SDS011;374;52.568;13.402;2022-11-20T12:12:10;17.87;;;12.60;;
781;SDS011;374;52.568;13.402;2022-11-20T12:14:43;18.87;;;12.73;;
781;SDS011;374;52.568;13.402;2022-11-20T12:17:13;17.70;;;11.87;;
781;SDS011;374;52.568;13.402;2022-11-20T12:19:40;18.10;;;13.10;;
781;SDS011;374;52.568;13.402;2022-11-20T12:22:17;19.23;;;12.40;;
781;SDS011;374;52.568;13.402;2022-11-20T12:30:14;20.23;;;13.37;;
781;SDS011;374;52.568;13.402;2022-11-20T12:38:07;19.47;;;12.43;;
781;SDS011;374;52.568;13.402;2022-11-20T12:44:24;21.50;;;15.43;;
781;SDS011;374;52.568;13.402;2022-11-20T12:53:00;17.13;;;10.40;;
781;SDS011;374;52.568;13.402;2022-11-20T12:58:29;15.30;;;10.83;;
781;SDS011;374;52.568;13.402;2022-11-20T13:01:19;16.10;;;11.90;;
781;SDS011;374;52.568;13.402;2022-11-20T13:06:44;22.97;;;14.73;;
781;SDS011;374;52.568;13.402;2022-11-20T13:09:14;21.10;;;12.80;;
781;SDS011;374;52.568;13.402;2022-11-20T13:11:48;22.80;;;14.90;;
781;SDS011;374;52.568;13.402;2022-11-20T13:14:38;19.37;;;14.97;;
781;SDS011;374;52.568;13.402;2022-11-20T13:17:45;19.87;;;12.40;;
781;SDS011;374;52.568;13.402;2022-11-20T13:20:19;23.50;;;13.80;;
781;SDS011;374;52.568;13.402;2022-11-20T13:22:46;16.50;;;12.63;;
781;SDS011;374;52.568;13.402;2022-11-20T13:25:30;18.30;;;13.90;;
781;SDS011;374;52.568;13.402;2022-11-20T13:27:58;18.13;;;12.93;;
781;SDS011;374;52.568;13.402;2022-11-20T13:30:26;19.00;;;13.90;;
781;SDS011;374;52.568;13.402;2022-11-20T13:32:53;15.77;;;11.23;;
781;SDS011;374;52.568;13.402;2022-11-20T13:38:09;29.70;;;20.30;;
781;SDS011;374;52.568;13.402;2022-11-20T13:40:37;23.10;;;16.63;;
781;SDS011;374;52.568;13.402;2022-11-20T13:46:08;17.10;;;14.43;;
781;SDS011;374;52.568;13.402;2022-11-20T13:48:39;20.80;;;15.93;;
781;SDS011;374;52.568;13.402;2022-11-20T13:57:14;20.00;;;14.80;;
781;SDS011;374;52.568;13.402;2022-11-20T14:00:02;23.87;;;16.27;;
781;SDS011;374;52.568;13.402;2022-11-20T14:02:43;21.20;;;16.07;;
781;SDS011;374;52.568;13.402;2022-11-20T14:05:45;15.60;;;12.33;;
781;SDS011;374;52.568;13.402;2022-11-20T14:08:21;19.23;;;13.97;;
781;SDS011;374;52.568;13.402;2022-11-20T14:11:06;18.40;;;14.43;;
781;SDS011;374;52.568;13.402;2022-11-20T14:14:00;17.03;;;12.83;;
781;SDS011;374;52.568;13.402;2022-11-20T14:16:28;15.73;;;11.63;;
781;SDS011;374;52.568;13.402;2022-11-20T14:19:16;19.10;;;16.00;;
781;SDS011;374;52.568;13.402;2022-11-20T14:22:06;15.60;;;12.43;;
781;SDS011;374;52.568;13.402;2022-11-20T14:24:43;15.80;;;11.50;;
781;SDS011;374;52.568;13.402;2022-11-20T14:27:17;17.77;;;11.30;;
781;SDS011;374;52.568;13.402;2022-11-20T14:29:45;16.13;;;11.07;;
781;SDS011;374;52.568;13.402;2022-11-20T14:32:23;16.80;;;10.87;;
781;SDS011;374;52.568;13.402;2022-11-20T14:34:54;13.90;;;10.53;;
781;SDS011;374;52.568;13.402;2022-11-20T14:37:25;17.30;;;11.63;;
781;SDS011;374;52.568;13.402;2022-11-20T14:39:54;16.47;;;11.50;;
781;SDS011;374;52.568;13.402;2022-11-20T14:42:22;13.90;;;10.17;;
781;SDS011;374;52.568;13.402;2022-11-20T14:44:49;15.10;;;11.70;;
781;SDS011;374;52.568;13.402;2022-11-20T14:47:19;17.33;;;11.60;;
781;SDS011;374;52.568;13.402;2022-11-20T14:49:50;16.80;;;12.27;;
781;SDS011;374;52.568;13.402;2022-11-20T14:52:18;17.80;;;12.43;;
781;SDS011;374;52.568;13.402;2022-11-20T14:54:49;15.57;;;11.60;;
781;SDS011;374;52.568;13.402;2022-11-20T14:57:26;14.40;;;11.07;;
781;SDS011;374;52.568;13.402;2022-11-20T15:02:44;16.57;;;11.63;;
781;SDS011;374;52.568;13.402;2022-11-20T15:05:11;13.83;;;10.27;;
781;SDS011;374;52.568;13.402;2022-11-20T15:07:37;16.20;;;10.70;;
781;SDS011;374;52.568;13.402;2022-11-20T15:10:09;12.80;;;10.43;;
781;SDS011;374;52.568;13.402;2022-11-20T15:12:40;14.50;;;10.60;;
781;SDS011;374;52.568;13.402;2022-11-20T15:15:14;14.47;;;10.70;;
781;SDS011;374;52.568;13.402;2022-11-20T15:17:45;11.77;;;10.30;;
781;SDS011;374;52.568;13.402;2022-11-20T15:20:12;13.60;;;10.30;;
781;SDS011;374;52.568;13.402;2022-11-20T15:22:39;13.43;;;10.13;;
781;SDS011;374;52.568;13.402;2022-11-20T15:25:11;17.43;;;11.60;;
781;SDS011;374;52.568;13.402;2022-11-20T15:27:38;14.30;;;11.30;;
781;SDS011;374;52.568;13.402;2022-11-20T15:30:11;14.17;;;11.63;;
781;SDS011;374;52.568;13.402;2022-11-20T15:32:41;14.77;;;10.20;;
781;SDS011;374;52.568;13.402;2022-11-20T15:35:10;17.30;;;11.67;;
781;SDS011;374;52.568;13.402;2022-11-20T15:37:38;17.67;;;10.60;;
781;SDS011;374;52.568;13.402;2022-11-20T15:40:07;13.90;;;10.90;;
781;SDS011;374;52.568;13.402;2022-11-20T15:42:33;16.23;;;10.30;;
781;SDS011;374;52.568;13.402;2022-11-20T15:44:59;13.37;;;9.90;;
781;SDS011;374;52.568;13.402;2022-11-20T15:47:26;14.50;;;11.23;;
781;SDS011;374;52.568;13.402;2022-11-20T15:49:54;12.57;;;10.73;;
781;SDS011;374;52.568;13.402;2022-11-20T15:52:22;19.30;;;11.70;;
781;SDS011;374;52.568;13.402;2022-11-20T15:54:47;18.63;;;11.40;;
781;SDS011;374;52.568;13.402;2022-11-20T15:57:13;16.20;;;11.70;;
781;SDS011;374;52.568;13.402;2022-11-20T15:59:39;18.43;;;12.30;;
781;SDS011;374;52.568;13.402;2022-11-20T16:02:15;16.80;;;12.03;;
781;SDS011;374;52.568;13.402;2022-11-20T16:04:41;15.03;;;10.60;;
781;SDS011;374;52.568;13.402;2022-11-20T16:07:07;16.63;;;12.80;;
781;SDS011;374;52.568;13.402;2022-11-20T16:09:32;12.33;;;9.60;;
781;SDS011;374;52.568;13.402;2022-11-20T16:11:58;16.50;;;11.97;;
781;SDS011;374;52.568;13.402;2022-11-20T16:14:31;16.00;;;11.27;;
781;SDS011;374;52.568;13.402;2022-11-20T16:17:16;14.53;;;11.30;;
781;SDS011;374;52.568;13.402;2022-11-20T16:20:01;17.53;;;14.27;;
781;SDS011;374;52.568;13.402;2022-11-20T16:22:26;18.00;;;15.00;;
781;SDS011;374;52.568;13.402;2022-11-20T16:24:52;25.07;;;16.17;;
781;SDS011;374;52.568;13.402;2022-11-20T16:27:17;21.90;;;15.40;;
781;SDS011;374;52.568;13.402;2022-11-20T16:29:43;21.57;;;14.17;;
781;SDS011;374;52.568;13.402;2022-11-20T16:32:08;17.87;;;13.10;;